Time;durP1;ratioP1;P1;durP2;ratioP2;P2;SDS_P1;SDS_P2;PMS_P1;PMS_P2;Temp;Humidity;BMP_temperature;BMP_pressure;BME280_temperature;BME280_humidity;BME280_pressure;Samples;Min_cycle;Max_cycle;Signal;HPM_P1;HPM_P2
2023/10/08 00:01:19;;;;;;;;;20.80;20.80;;;;;15.15;38.04;99731.28;5128039;27;8967;-81
2023/10/08 00:03:50;;;;;;;;;19.60;19.40;;;;;15.14;37.90;99727.78;5129688;27;8773;-81
2023/10/08 00:06:22;;;;;;;;;26.00;24.20;;;;;15.15;37.84;99720.69;5134647;27;8868;-83
2023/10/08 00:08:58;;;;;;;;;22.80;20.80;;;;;15.16;37.72;99722.44;5116223;27;8937;-81
2023/10/08 00:11:30;;;;;;;;;21.80;20.40;;;;;15.13;37.92;99719.88;5134114;27;8856;-81
2023/10/08 00:14:01;;;;;;;;;20.00;20.00;;;;;15.13;38.09;99715.47;5133953;27;8830;-84
2023/10/08 00:16:33;;;;;;;;;21.20;21.20;;;;;15.10;38.06;99712.94;5132931;27;8901;-80
2023/10/08 00:19:10;;;;;;;;;26.80;24.40;;;;;15.10;37.93;99709.44;5134530;27;8899;-80
2023/10/08 00:21:40;;;;;;;;;21.20;19.00;;;;;15.03;38.15;99716.72;5115719;27;8841;-82
2023/10/08 00:24:09;;;;;;;;;13.60;13.60;;;;;15.11;38.03;99700.56;5133922;27;8918;-80
2023/10/08 00:26:41;;;;;;;;;22.00;20.20;;;;;15.03;37.98;99698.19;5133463;27;8857;-77
2023/10/08 00:29:21;;;;;;;;;20.60;20.00;;;;;15.03;37.80;99698.19;5082150;27;8934;-79
2023/10/08 00:31:50;;;;;;;;;21.00;20.40;;;;;15.04;37.71;99699.94;5114130;27;8826;-80
2023/10/08 00:34:20;;;;;;;;;19.00;18.40;;;;;15.08;37.49;99695.41;5115142;27;8861;-80
2023/10/08 00:36:50;;;;;;;;;22.80;21.00;;;;;15.04;37.53;99695.50;5115005;27;8838;-80
2023/10/08 00:39:23;;;;;;;;;19.80;18.20;;;;;15.07;37.36;99699.81;5097839;27;8876;-80
2023/10/08 00:41:58;;;;;;;;;16.40;16.40;;;;;15.15;37.41;99688.91;5132158;27;8845;-81
2023/10/08 00:44:30;;;;;;;;;20.00;18.20;;;;;15.23;37.10;99693.03;5113755;27;8956;-76
2023/10/08 00:47:04;;;;;;;;;20.00;19.20;;;;;15.04;37.29;99686.69;5095998;27;8929;-80
2023/10/08 00:49:48;;;;;;;;;19.00;18.00;;;;;15.24;36.92;99688.56;5114535;27;8885;-77
2023/10/08 00:52:40;;;;;;;;;18.00;15.20;;;;;15.29;36.85;99680.47;5146824;27;8839;-79
2023/10/08 00:55:14;;;;;;;;;17.20;16.20;;;;;15.36;36.81;99674.00;5112325;27;8964;-79
2023/10/08 00:57:47;;;;;;;;;21.60;19.40;;;;;15.33;36.77;99668.84;5108154;27;8877;-80
2023/10/08 01:00:21;;;;;;;;;18.60;17.40;;;;;15.33;36.86;99671.47;5118074;27;8847;-81
2023/10/08 01:03:00;;;;;;;;;17.40;16.00;;;;;15.45;36.45;99663.03;5132761;27;8872;-79
2023/10/08 01:05:46;;;;;;;;;19.00;16.80;;;;;15.51;36.28;99662.81;5072267;28;8844;-79
2023/10/08 01:08:22;;;;;;;;;20.60;19.00;;;;;15.59;36.34;99663.38;5070636;28;8848;-80
2023/10/08 01:11:00;;;;;;;;;17.60;16.80;;;;;15.65;36.09;99649.03;5036175;28;8878;-81
2023/10/08 01:13:44;;;;;;;;;20.00;18.80;;;;;15.71;36.00;99643.50;5052304;28;8844;-81
2023/10/08 01:16:15;;;;;;;;;15.80;15.80;;;;;15.73;35.84;99648.72;5050768;28;8944;-79
2023/10/08 01:18:50;;;;;;;;;21.00;17.40;;;;;15.70;35.74;99648.84;5069826;28;8942;-81
2023/10/08 01:21:33;;;;;;;;;17.00;16.80;;;;;15.75;35.49;99650.38;5068962;28;8832;-83
2023/10/08 01:24:07;;;;;;;;;19.40;16.20;;;;;15.75;35.24;99657.47;5035168;28;8860;-81
2023/10/08 01:26:38;;;;;;;;;16.80;14.20;;;;;15.81;35.43;99651.91;5052045;28;8917;-81
2023/10/08 01:29:19;;;;;;;;;16.40;15.20;;;;;15.87;35.24;99654.34;5051797;28;8851;-83
2023/10/08 01:31:49;;;;;;;;;17.80;17.60;;;;;15.90;34.93;99648.03;5034649;28;8836;-79
2023/10/08 01:34:26;;;;;;;;;16.40;16.20;;;;;15.87;34.84;99648.16;5048618;28;8842;-81
2023/10/08 01:37:00;;;;;;;;;16.00;15.20;;;;;15.92;34.76;99648.84;5039316;28;8874;-80
2023/10/08 01:39:32;;;;;;;;;19.40;18.00;;;;;15.96;34.32;99651.31;5048539;28;8849;-79
2023/10/08 01:42:01;;;;;;;;;17.80;14.60;;;;;15.90;34.07;99654.19;4999030;28;8956;-79
2023/10/08 01:44:30;;;;;;;;;16.20;15.60;;;;;15.98;34.33;99660.06;5048824;28;8853;-79
2023/10/08 01:46:59;;;;;;;;;19.00;17.40;;;;;15.98;33.53;99656.53;5032337;28;8843;-78
2023/10/08 01:49:33;;;;;;;;;17.20;15.40;;;;;16.01;33.98;99654.63;5069465;28;8890;-80
2023/10/08 01:52:07;;;;;;;;;17.20;16.20;;;;;16.07;33.80;99657.94;5069533;28;8990;-78
2023/10/08 01:54:37;;;;;;;;;14.40;14.40;;;;;16.12;33.75;99650.66;5051317;28;8886;-76
2023/10/08 01:57:09;;;;;;;;;15.40;15.00;;;;;16.13;33.34;99641.78;5067561;28;8859;-79
2023/10/08 01:59:38;;;;;;;;;14.80;14.60;;;;;16.16;33.61;99649.59;5051935;28;9611;-79
2023/10/08 02:02:08;;;;;;;;;15.60;14.60;;;;;16.19;33.21;99652.09;5048038;28;8888;-81
2023/10/08 02:04:37;;;;;;;;;14.80;13.80;;;;;16.01;32.87;99653.75;5025673;28;8856;-78
2023/10/08 02:07:08;;;;;;;;;13.80;13.00;;;;;16.12;32.73;99648.88;5017797;28;8848;-80
2023/10/08 02:09:40;;;;;;;;;16.00;14.60;;;;;16.12;32.39;99656.81;5071726;28;9588;-77
2023/10/08 02:12:10;;;;;;;;;15.60;15.00;;;;;16.22;32.88;99659.94;5071464;28;8857;-81
2023/10/08 02:14:42;;;;;;;;;15.40;15.40;;;;;16.32;32.90;99648.03;5071922;28;8938;-78
2023/10/08 02:17:13;;;;;;;;;10.00;10.00;;;;;16.33;32.82;99640.94;5088369;28;8841;-80
2023/10/08 02:19:42;;;;;;;;;18.00;16.40;;;;;16.37;32.87;99642.50;5026765;28;8887;-80
2023/10/08 02:22:11;;;;;;;;;11.20;11.20;;;;;16.35;33.32;99641.72;5027651;28;8961;-79
2023/10/08 02:24:42;;;;;;;;;15.60;13.80;;;;;16.39;33.24;99646.81;5027465;28;8840;-80
2023/10/08 02:27:15;;;;;;;;;13.40;12.80;;;;;16.43;33.08;99635.13;5026718;28;8887;-77
2023/10/08 02:29:44;;;;;;;;;15.40;15.00;;;;;16.46;32.53;99636.84;5010508;28;8848;-81
2023/10/08 02:32:14;;;;;;;;;14.60;14.20;;;;;16.50;32.73;99625.16;5027272;28;8918;-79
2023/10/08 02:34:43;;;;;;;;;17.00;16.00;;;;;16.53;32.11;99629.44;5026823;28;8961;-78
2023/10/08 02:37:12;;;;;;;;;13.40;12.80;;;;;16.54;32.27;99621.44;5033388;28;8838;-78
2023/10/08 02:39:43;;;;;;;;;14.80;14.40;;;;;16.60;32.05;99615.00;5047837;28;9036;-79
2023/10/08 02:42:14;;;;;;;;;14.60;13.00;;;;;16.50;32.58;99617.19;5026544;28;8857;-79
2023/10/08 02:44:42;;;;;;;;;16.40;15.20;;;;;16.55;32.61;99612.56;5026343;28;8842;-81
2023/10/08 02:47:13;;;;;;;;;13.00;13.00;;;;;16.56;32.44;99611.59;5027538;28;8853;-80
2023/10/08 02:49:42;;;;;;;;;13.20;13.00;;;;;16.57;32.88;99608.03;5001389;28;8864;-81
2023/10/08 02:52:12;;;;;;;;;15.80;15.80;;;;;16.56;32.84;99605.44;5092795;28;8938;-79
2023/10/08 02:54:41;;;;;;;;;14.40;13.80;;;;;16.59;32.68;99600.00;5078444;28;8933;-80
2023/10/08 02:57:16;;;;;;;;;13.80;12.80;;;;;16.57;32.74;99599.22;5046091;28;9596;-80
2023/10/08 02:59:45;;;;;;;;;17.20;14.20;;;;;16.51;32.63;99587.09;5046672;28;8858;-79
2023/10/08 03:02:18;;;;;;;;;16.60;15.40;;;;;16.42;32.35;99583.00;5063819;28;8858;-80
2023/10/08 03:04:51;;;;;;;;;15.20;14.20;;;;;16.41;32.22;99583.94;5063520;28;9010;-81
2023/10/08 03:07:31;;;;;;;;;16.60;14.00;;;;;16.32;32.57;99578.19;5063552;28;8951;-78
2023/10/08 03:10:06;;;;;;;;;14.00;13.00;;;;;16.36;32.59;99587.72;5017107;28;8901;-80
2023/10/08 03:12:37;;;;;;;;;13.80;13.80;;;;;16.34;32.94;99592.22;5064441;28;8838;-77
2023/10/08 03:15:14;;;;;;;;;12.00;11.60;;;;;16.32;32.52;99592.31;5085123;28;8968;-79
2023/10/08 03:17:50;;;;;;;;;12.80;12.00;;;;;16.24;32.44;99599.75;5070084;28;8838;-81
2023/10/08 03:20:38;;;;;;;;;12.20;11.60;;;;;16.29;32.16;99589.78;5084779;28;8854;-81
2023/10/08 03:23:12;;;;;;;;;12.40;11.40;;;;;16.30;32.21;99591.50;5011136;28;8862;-81
2023/10/08 03:25:42;;;;;;;;;16.20;15.00;;;;;16.31;32.42;99590.59;5069070;28;8858;-78
2023/10/08 03:28:16;;;;;;;;;5.00;5.00;;;;;16.32;32.40;99587.03;5089919;28;9026;-80
2023/10/08 03:30:51;;;;;;;;;15.00;13.00;;;;;16.36;32.02;99590.38;5089493;28;9597;-83
2023/10/08 03:33:26;;;;;;;;;15.20;14.20;;;;;16.31;32.18;99581.78;5088535;28;8992;-82
2023/10/08 03:35:55;;;;;;;;;15.00;13.00;;;;;16.31;32.10;99574.69;5089543;28;8957;-81
2023/10/08 03:38:38;;;;;;;;;14.80;13.80;;;;;16.37;32.04;99579.69;5089084;28;8910;-81
2023/10/08 03:41:20;;;;;;;;;14.60;13.80;;;;;16.40;31.85;99574.25;5029149;28;9694;-80
2023/10/08 03:43:58;;;;;;;;;14.60;13.00;;;;;16.41;32.06;99572.47;5046396;28;9394;-80
2023/10/08 03:46:26;;;;;;;;;14.80;14.80;;;;;16.45;31.93;99568.78;4977455;28;8867;-79
2023/10/08 03:48:57;;;;;;;;;13.40;12.80;;;;;16.37;31.63;99566.44;5010317;28;8874;-79
2023/10/08 03:51:27;;;;;;;;;14.00;13.60;;;;;16.38;31.62;99575.28;5010392;28;8879;-79
2023/10/08 03:54:07;;;;;;;;;9.60;9.00;;;;;16.39;31.76;99577.84;5032977;28;8921;-76
2023/10/08 03:56:37;;;;;;;;;11.80;11.80;;;;;16.48;31.95;99575.75;5032733;28;9613;-79
2023/10/08 03:59:12;;;;;;;;;13.40;11.20;;;;;16.42;31.53;99579.50;5081906;28;8994;-80
2023/10/08 04:01:43;;;;;;;;;11.40;11.40;;;;;16.49;31.66;99575.66;5034823;28;8867;-82
2023/10/08 04:04:15;;;;;;;;;13.60;12.80;;;;;16.54;31.54;99568.34;5067068;28;8844;-79
2023/10/08 04:06:49;;;;;;;;;13.00;11.80;;;;;16.53;31.41;99568.44;5066406;28;8982;-80
2023/10/08 04:09:23;;;;;;;;;12.60;12.00;;;;;16.57;31.31;99567.38;5066657;28;8909;-79
2023/10/08 04:11:53;;;;;;;;;12.80;12.00;;;;;16.61;31.23;99556.53;5067872;28;8880;-81
2023/10/08 04:14:29;;;;;;;;;13.80;12.80;;;;;16.58;31.34;99548.72;5034904;28;8880;-79
2023/10/08 04:16:58;;;;;;;;;13.00;13.00;;;;;16.64;31.37;99550.22;5052119;28;8871;-76
2023/10/08 04:19:28;;;;;;;;;13.20;12.20;;;;;16.64;31.16;99544.06;5066875;28;8901;-78
2023/10/08 04:21:57;;;;;;;;;10.60;9.20;;;;;16.63;31.40;99545.00;5049435;28;8953;-79
2023/10/08 04:24:35;;;;;;;;;13.60;13.60;;;;;16.64;31.47;99547.56;5065907;28;8859;-80
2023/10/08 04:27:09;;;;;;;;;13.40;12.60;;;;;16.70;31.18;99544.66;5065762;28;9546;-79
2023/10/08 04:29:42;;;;;;;;;13.00;12.20;;;;;16.74;31.23;99540.06;5065389;28;8863;-80
2023/10/08 04:32:21;;;;;;;;;11.00;10.20;;;;;16.78;31.15;99534.53;5037131;28;8963;-79
2023/10/08 04:34:52;;;;;;;;;12.40;10.60;;;;;16.83;30.85;99539.59;5089168;28;8855;-80
2023/10/08 04:37:21;;;;;;;;;16.00;14.80;;;;;16.84;31.04;99540.50;5065462;28;8867;-78
2023/10/08 04:39:58;;;;;;;;;38.50;34.25;;;;;16.81;30.90;99554.75;5074140;28;8844;-78
2023/10/08 04:42:27;;;;;;;;;14.40;14.40;;;;;16.83;30.94;99560.84;5088690;28;8872;-81
2023/10/08 04:44:58;;;;;;;;;17.60;16.20;;;;;16.60;30.80;99569.88;5089178;28;8839;-77
2023/10/08 04:47:34;;;;;;;;;11.80;11.80;;;;;16.58;30.71;99569.09;5088876;28;8878;-79
2023/10/08 04:50:06;;;;;;;;;12.60;12.40;;;;;16.71;31.13;99564.94;5089330;28;8875;-79
2023/10/08 04:52:45;;;;;;;;;12.80;12.40;;;;;16.70;31.10;99546.41;5091400;28;8946;-78
2023/10/08 04:55:20;;;;;;;;;14.40;13.40;;;;;16.71;31.03;99546.34;5121064;27;8837;-79
2023/10/08 04:57:52;;;;;;;;;9.20;6.40;;;;;16.78;31.13;99545.16;5131355;27;8817;-78
2023/10/08 05:00:41;;;;;;;;;14.00;13.00;;;;;16.79;31.19;99549.50;5133139;27;8865;-82
2023/10/08 05:03:15;;;;;;;;;13.20;12.20;;;;;16.89;31.22;99549.06;5113901;27;8863;-78
2023/10/08 05:06:07;;;;;;;;;13.80;13.00;;;;;16.85;31.11;99560.78;5132761;27;8875;-77
2023/10/08 05:08:57;;;;;;;;;12.60;12.00;;;;;16.80;30.89;99569.81;5049655;27;8852;-78
2023/10/08 05:11:36;;;;;;;;;13.40;13.00;;;;;16.83;30.58;99573.25;5130559;27;8848;-78
2023/10/08 05:14:16;;;;;;;;;14.60;10.20;;;;;16.90;30.78;99574.72;5111676;28;9613;-78
2023/10/08 05:17:00;;;;;;;;;18.40;17.20;;;;;16.89;30.89;99565.00;5112515;28;8832;-81
2023/10/08 05:19:48;;;;;;;;;19.20;17.40;;;;;16.93;30.85;99558.66;5069430;28;8875;-78
2023/10/08 05:22:18;;;;;;;;;15.60;13.60;;;;;16.98;30.82;99557.50;5069744;28;8890;-78
2023/10/08 05:25:07;;;;;;;;;19.00;17.00;;;;;16.99;30.95;99558.34;5069039;28;8997;-79
2023/10/08 05:30:41;;;;;;;;;36.75;33.00;;;;;17.04;30.90;99552.81;4980254;28;8864;-79
2023/10/08 05:33:24;;;;;;;;;20.20;19.20;;;;;16.95;30.89;99548.81;5028689;28;8867;-80
2023/10/08 05:36:09;;;;;;;;;13.40;11.40;;;;;16.50;31.21;99542.06;5025154;28;8988;-79
2023/10/08 05:38:48;;;;;;;;;16.40;13.20;;;;;16.47;31.32;99545.69;5008813;28;8877;-82
2023/10/08 05:41:38;;;;;;;;;14.00;13.60;;;;;16.32;31.39;99554.31;5014119;28;9007;-81
2023/10/08 05:44:24;;;;;;;;;12.80;11.20;;;;;16.29;31.44;99544.69;4993667;28;8878;-76
2023/10/08 05:49:42;;;;;;;;;13.00;12.00;;;;;15.78;32.65;99559.31;4965749;28;9803;-82
2023/10/08 05:55:15;;;;;;;;;21.40;18.60;;;;;16.21;31.89;99566.25;5007759;28;9703;-78
2023/10/08 05:57:51;;;;;;;;;14.40;12.60;;;;;15.94;32.39;99581.56;5012809;28;8842;-79
2023/10/08 06:03:31;;;;;;;;;32.40;30.20;;;;;16.38;32.00;99573.47;5047467;28;8862;-82
2023/10/08 06:08:51;;;;;;;;;14.20;10.20;;;;;16.13;32.30;99578.97;5131181;27;8857;-79
2023/10/08 06:11:41;;;;;;;;;12.00;11.20;;;;;16.36;31.71;99580.66;5131818;27;8822;-80
2023/10/08 06:14:28;;;;;;;;;19.20;18.20;;;;;16.34;31.80;99584.28;5129304;27;8968;-77
2023/10/08 06:17:13;;;;;;;;;13.00;12.00;;;;;16.49;31.82;99582.75;5118052;27;8870;-78
2023/10/08 06:19:43;;;;;;;;;15.20;13.60;;;;;16.70;31.76;99587.13;5114259;27;9032;-81
2023/10/08 06:22:12;;;;;;;;;13.20;12.00;;;;;16.67;31.49;99583.75;5139596;27;8833;-77
2023/10/08 06:24:41;;;;;;;;;14.00;14.00;;;;;16.73;31.55;99575.50;5117307;27;8869;-76
2023/10/08 06:27:16;;;;;;;;;14.60;12.40;;;;;16.95;31.36;99584.19;5128259;27;9042;-77
2023/10/08 06:29:45;;;;;;;;;12.00;12.00;;;;;16.83;31.59;99579.44;5136354;27;8862;-77
2023/10/08 06:32:14;;;;;;;;;13.00;11.80;;;;;16.63;31.83;99568.91;5146090;27;8849;-78
2023/10/08 06:34:43;;;;;;;;;12.00;11.60;;;;;16.98;31.87;99575.19;5144552;27;8851;-78
2023/10/08 06:37:15;;;;;;;;;26.20;24.60;;;;;17.07;31.66;99577.41;5140829;27;8855;-78
2023/10/08 06:39:48;;;;;;;;;19.60;17.80;;;;;17.12;31.25;99574.56;5117169;27;9007;-78
2023/10/08 06:42:17;;;;;;;;;18.20;17.40;;;;;17.25;31.19;99580.13;5130355;27;8957;-76
2023/10/08 06:44:48;;;;;;;;;16.20;14.80;;;;;17.31;30.93;99571.91;5128500;27;8852;-76
2023/10/08 06:47:18;;;;;;;;;14.20;14.00;;;;;17.05;31.42;99578.44;5080235;27;8871;-82
2023/10/08 06:49:47;;;;;;;;;7.80;7.60;;;;;17.22;31.46;99573.19;5150792;27;8850;-81
2023/10/08 06:52:19;;;;;;;;;8.40;8.40;;;;;17.08;31.73;99573.84;5132873;27;8910;-81
2023/10/08 06:54:48;;;;;;;;;13.40;11.40;;;;;17.22;31.50;99543.97;5131235;27;8880;-81
2023/10/08 06:57:20;;;;;;;;;13.80;13.00;;;;;17.28;31.59;99558.78;5130065;27;8845;-83
2023/10/08 06:59:50;;;;;;;;;11.80;11.80;;;;;17.31;31.29;99543.53;5130576;27;8861;-81
2023/10/08 07:02:20;;;;;;;;;9.80;9.80;;;;;17.41;31.61;99543.94;5091402;27;8874;-83
2023/10/08 07:04:51;;;;;;;;;13.00;11.80;;;;;17.28;31.22;99532.19;5083310;27;8971;-81
2023/10/08 07:07:22;;;;;;;;;13.40;12.60;;;;;17.47;31.31;99537.47;5099130;27;8845;-79
2023/10/08 07:09:56;;;;;;;;;1.60;0.20;;;;;17.20;31.86;99533.41;5139167;27;8959;-79
2023/10/08 07:12:25;;;;;;;;;10.40;10.20;;;;;17.31;31.23;99526.75;5065947;27;8882;-81
2023/10/08 07:14:54;;;;;;;;;10.20;9.60;;;;;17.45;31.29;99537.53;5118387;27;8933;-80
2023/10/08 07:17:27;;;;;;;;;11.20;10.20;;;;;17.49;31.07;99536.44;5150492;27;8935;-80
2023/10/08 07:19:57;;;;;;;;;12.00;10.60;;;;;17.73;31.12;99539.66;5145539;27;8872;-78
2023/10/08 07:22:28;;;;;;;;;15.80;15.20;;;;;17.57;30.82;99544.03;5124402;27;8838;-80
2023/10/08 07:24:58;;;;;;;;;13.20;13.20;;;;;17.72;30.83;99553.03;5138455;27;8860;-81
2023/10/08 07:27:31;;;;;;;;;12.60;12.00;;;;;17.46;30.82;99568.50;5081632;27;8837;-80
2023/10/08 07:30:03;;;;;;;;;10.40;10.40;;;;;17.50;30.92;99559.44;5122101;27;8856;-80
2023/10/08 07:32:34;;;;;;;;;11.80;10.40;;;;;17.78;30.65;99564.22;5124104;27;8917;-78
2023/10/08 07:35:23;;;;;;;;;12.20;12.20;;;;;18.03;30.70;99557.69;5129894;27;8876;-83
2023/10/08 07:37:54;;;;;;;;;15.00;13.20;;;;;18.09;30.31;99560.03;5098824;27;8981;-85
2023/10/08 07:40:27;;;;;;;;;15.60;15.20;;;;;18.10;30.74;99550.22;5079566;27;8854;-79
2023/10/08 07:42:56;;;;;;;;;14.80;13.80;;;;;18.31;30.26;99554.44;5110928;27;8822;-79
2023/10/08 07:45:25;;;;;;;;;15.60;14.80;;;;;18.43;30.36;99538.78;5076038;27;8881;-80
2023/10/08 07:47:55;;;;;;;;;16.20;14.80;;;;;18.48;30.48;99550.88;5128445;27;8903;-79
2023/10/08 07:50:24;;;;;;;;;12.80;11.80;;;;;18.35;30.18;99553.34;5129042;27;8861;-77
2023/10/08 07:52:56;;;;;;;;;12.20;10.00;;;;;18.63;29.94;99553.63;5129573;27;8857;-82
2023/10/08 07:55:24;;;;;;;;;15.00;13.60;;;;;18.66;29.54;99543.69;5110415;27;8946;-81
2023/10/08 07:57:53;;;;;;;;;13.80;11.80;;;;;18.90;29.84;99536.19;5110752;27;8845;-80
2023/10/08 08:00:25;;;;;;;;;13.20;13.20;;;;;18.39;30.47;99538.06;5079953;27;8900;-80
2023/10/08 08:02:56;;;;;;;;;20.80;18.20;;;;;18.74;30.24;99535.28;5149493;27;8870;-81
2023/10/08 08:05:25;;;;;;;;;14.00;11.60;;;;;18.46;29.97;99539.47;5150428;27;8863;-83
2023/10/08 08:07:59;;;;;;;;;18.80;16.20;;;;;18.92;30.31;99546.75;5107293;27;8953;-79
2023/10/08 08:10:29;;;;;;;;;18.00;15.80;;;;;19.16;29.70;99535.66;5089880;27;8846;-81
2023/10/08 08:12:58;;;;;;;;;11.00;11.00;;;;;19.04;29.28;99539.88;5134699;27;8845;-81
2023/10/08 08:15:29;;;;;;;;;11.60;10.40;;;;;18.86;29.53;99539.97;5127685;27;8945;-80
2023/10/08 08:18:05;;;;;;;;;13.40;12.40;;;;;18.78;29.84;99533.31;5144850;27;8849;-85
2023/10/08 08:20:38;;;;;;;;;14.80;11.80;;;;;18.65;29.72;99534.00;5129832;27;8845;-80
2023/10/08 08:23:09;;;;;;;;;12.00;12.00;;;;;19.11;29.32;99526.13;5129462;27;8825;-81
2023/10/08 08:25:45;;;;;;;;;16.20;12.60;;;;;19.26;29.06;99520.88;5131377;27;8853;-82
2023/10/08 08:28:20;;;;;;;;;11.40;10.60;;;;;19.13;29.26;99526.88;5146936;27;8823;-80
2023/10/08 08:30:52;;;;;;;;;10.00;9.20;;;;;19.35;28.78;99522.13;5126747;27;8864;-82
2023/10/08 08:33:23;;;;;;;;;12.60;9.60;;;;;19.51;29.02;99515.84;5104199;27;8847;-83
2023/10/08 08:36:05;;;;;;;;;11.00;10.00;;;;;19.59;29.07;99522.53;5157865;27;8867;-81
2023/10/08 08:38:36;;;;;;;;;13.20;12.00;;;;;19.33;29.11;99509.78;5101676;27;8839;-80
2023/10/08 08:41:09;;;;;;;;;13.80;13.40;;;;;19.68;29.15;99517.53;5152907;27;9619;-81
2023/10/08 08:43:43;;;;;;;;;11.60;11.60;;;;;19.43;29.13;99507.41;5144252;27;8835;-78
2023/10/08 08:46:13;;;;;;;;;11.60;10.60;;;;;19.61;29.16;99504.66;5141807;27;8863;-84
2023/10/08 08:48:44;;;;;;;;;13.00;12.20;;;;;19.66;28.93;99510.56;5126890;27;8856;-82
2023/10/08 08:51:13;;;;;;;;;11.80;11.80;;;;;19.61;29.44;99512.66;5113920;27;8892;-82
2023/10/08 08:53:44;;;;;;;;;13.80;12.80;;;;;19.49;29.92;99512.38;5132575;27;8950;-79
2023/10/08 08:56:15;;;;;;;;;11.80;9.20;;;;;19.53;29.52;99510.44;5079247;27;8861;-82
2023/10/08 08:58:46;;;;;;;;;10.80;10.80;;;;;19.57;29.01;99505.78;5049880;27;8843;-80
2023/10/08 09:01:20;;;;;;;;;10.40;9.40;;;;;19.79;29.47;99513.38;5138915;27;8976;-80
2023/10/08 09:03:50;;;;;;;;;14.40;13.60;;;;;19.54;29.84;99519.28;5136067;27;9590;-80
2023/10/08 09:06:19;;;;;;;;;14.80;13.40;;;;;19.45;29.94;99505.53;5113425;27;8880;-84
2023/10/08 09:08:49;;;;;;;;;9.20;9.00;;;;;19.85;29.85;99502.31;5140239;27;8839;-81
2023/10/08 09:11:19;;;;;;;;;12.80;12.80;;;;;19.69;29.55;99513.06;5134653;27;8844;-84
2023/10/08 09:14:10;;;;;;;;;13.00;12.60;;;;;19.96;29.86;99513.22;5089160;28;8873;-80
2023/10/08 09:16:39;;;;;;;;;15.40;15.40;;;;;19.78;29.86;99523.16;5015727;28;8861;-64
2023/10/08 09:19:16;;;;;;;;;13.80;13.00;;;;;19.70;30.17;99525.44;5047746;28;8860;-65
2023/10/08 09:21:45;;;;;;;;;15.40;13.20;;;;;19.51;30.59;99526.50;5015438;28;8939;-65
2023/10/08 09:24:20;;;;;;;;;16.60;15.00;;;;;19.47;30.66;99521.44;5047799;28;9035;-65
2023/10/08 09:26:49;;;;;;;;;18.00;14.40;;;;;19.69;30.36;99521.91;5047733;28;9041;-63
2023/10/08 09:29:18;;;;;;;;;11.20;10.60;;;;;19.69;30.78;99532.59;5047754;28;8826;-64
2023/10/08 09:31:55;;;;;;;;;13.80;13.00;;;;;20.00;30.29;99521.88;5047467;28;8896;-66
2023/10/08 09:34:28;;;;;;;;;14.60;14.60;;;;;19.85;30.59;99521.00;5047653;28;8844;-64
2023/10/08 09:36:59;;;;;;;;;13.40;13.40;;;;;19.93;30.51;99528.53;5047129;28;8869;-64
2023/10/08 09:39:33;;;;;;;;;15.00;13.80;;;;;19.90;30.55;99526.94;5062539;28;8828;-64
2023/10/08 09:42:03;;;;;;;;;14.00;12.20;;;;;20.11;30.52;99516.75;5076571;28;9088;-63
2023/10/08 09:44:35;;;;;;;;;15.40;15.00;;;;;20.28;30.70;99529.09;5088036;28;8994;-66
2023/10/08 09:47:05;;;;;;;;;15.20;14.20;;;;;20.29;30.89;99530.78;5093713;27;8915;-65
2023/10/08 09:49:41;;;;;;;;;16.60;14.60;;;;;20.47;30.37;99526.13;5131558;27;8856;-65
2023/10/08 09:52:12;;;;;;;;;15.20;14.20;;;;;20.66;30.83;99532.03;5131101;27;8857;-64
2023/10/08 09:54:50;;;;;;;;;18.20;16.80;;;;;20.59;30.69;99532.50;5131173;27;9025;-64
2023/10/08 09:57:20;;;;;;;;;15.00;13.80;;;;;20.45;30.96;99526.22;5094865;27;8862;-65
2023/10/08 09:59:50;;;;;;;;;16.60;16.40;;;;;20.40;31.18;99520.31;5131067;27;8865;-66
2023/10/08 10:02:22;;;;;;;;;12.00;10.80;;;;;20.53;31.08;99524.91;5129675;27;8860;-65
2023/10/08 10:04:52;;;;;;;;;18.00;18.00;;;;;20.59;30.92;99512.00;5130832;27;8890;-66
2023/10/08 10:07:22;;;;;;;;;18.60;17.80;;;;;20.87;30.87;99520.94;5130882;27;8849;-66
2023/10/08 10:09:54;;;;;;;;;17.20;16.20;;;;;20.83;30.75;99512.25;5130966;27;8841;-66
2023/10/08 10:12:28;;;;;;;;;16.20;14.80;;;;;21.06;30.87;99517.97;5130452;27;9004;-67
2023/10/08 10:15:00;;;;;;;;;19.80;18.20;;;;;21.08;30.91;99518.72;5130775;27;8980;-66
2023/10/08 10:17:29;;;;;;;;;17.60;17.20;;;;;20.76;31.50;99524.28;5126649;27;8949;-64
2023/10/08 10:20:13;;;;;;;;;19.40;18.20;;;;;20.86;31.73;99521.91;5130548;27;8902;-63
2023/10/08 10:22:45;;;;;;;;;16.80;16.00;;;;;21.15;31.44;99524.53;5130070;27;8853;-64
2023/10/08 10:25:18;;;;;;;;;14.20;12.40;;;;;21.37;30.69;99522.16;5130349;27;8841;-65
2023/10/08 10:28:24;;;;;;;;;22.00;18.80;;;;;21.49;30.60;99515.13;5130478;27;9712;-65
2023/10/08 10:30:53;;;;;;;;;18.00;17.00;;;;;21.21;31.80;99508.94;5112063;27;8935;-65
2023/10/08 10:33:23;;;;;;;;;17.40;17.40;;;;;21.11;31.80;99509.66;5128044;27;8852;-66
2023/10/08 10:35:53;;;;;;;;;21.80;21.00;;;;;21.37;31.51;99513.25;5130245;27;8865;-66
2023/10/08 10:38:26;;;;;;;;;18.20;17.20;;;;;21.22;31.84;99520.50;5130287;27;8965;-66
2023/10/08 10:40:58;;;;;;;;;17.20;16.00;;;;;21.60;31.44;99511.78;5130220;27;8916;-67
2023/10/08 10:43:32;;;;;;;;;15.00;15.00;;;;;21.51;30.82;99501.66;5130048;27;8829;-67
2023/10/08 10:46:24;;;;;;;;;13.80;13.80;;;;;21.64;30.62;99489.19;5129571;27;8857;-66
2023/10/08 10:49:06;;;;;;;;;18.20;16.20;;;;;22.07;30.20;99485.34;5128591;27;8867;-66
2023/10/08 10:51:35;;;;;;;;;20.00;14.60;;;;;21.75;30.39;99488.44;5111549;27;8887;-66
2023/10/08 10:54:09;;;;;;;;;15.60;14.80;;;;;22.04;30.08;99497.16;5111056;27;8921;-65
2023/10/08 10:56:44;;;;;;;;;19.00;18.20;;;;;22.08;30.13;99485.25;5129929;27;8814;-67
2023/10/08 10:59:18;;;;;;;;;12.40;12.40;;;;;22.38;29.75;99476.06;5111553;27;8864;-68
2023/10/08 11:01:52;;;;;;;;;13.80;13.20;;;;;21.96;30.42;99470.06;5093137;27;8903;-66
2023/10/08 11:04:28;;;;;;;;;17.00;13.80;;;;;21.44;30.78;99474.44;5129810;27;8842;-67
2023/10/08 11:07:00;;;;;;;;;13.40;12.40;;;;;21.90;30.64;99471.34;5129837;27;8860;-65
2023/10/08 11:09:38;;;;;;;;;16.20;16.20;;;;;22.16;30.10;99448.06;5077395;27;8829;-79
2023/10/08 11:12:11;;;;;;;;;12.80;12.80;;;;;22.00;30.24;99456.34;5129624;27;8845;-79
2023/10/08 11:14:46;;;;;;;;;17.40;16.00;;;;;22.28;29.70;99449.09;5122536;27;8982;-80
2023/10/08 11:17:17;;;;;;;;;18.60;18.60;;;;;22.42;29.54;99440.91;5125958;27;8883;-81
2023/10/08 11:19:46;;;;;;;;;18.00;16.40;;;;;22.64;29.17;99436.66;5091492;27;8847;-79
2023/10/08 11:22:17;;;;;;;;;16.40;16.20;;;;;22.64;29.15;99441.16;5125754;27;8910;-80
2023/10/08 11:24:48;;;;;;;;;1.60;1.60;;;;;22.33;29.63;99446.91;5120466;27;8859;-79
2023/10/08 11:27:28;;;;;;;;;20.40;19.80;;;;;22.28;29.49;99450.88;5122174;27;9547;-81
2023/10/08 11:29:59;;;;;;;;;20.60;20.60;;;;;21.73;30.47;99443.09;5068415;27;9595;-74
2023/10/08 11:32:32;;;;;;;;;21.60;20.40;;;;;21.16;31.62;99446.03;5141479;27;8991;-75
2023/10/08 11:35:15;;;;;;;;;23.80;22.40;;;;;21.21;31.53;99454.63;5127134;27;8834;-76
2023/10/08 11:37:50;;;;;;;;;27.80;25.60;;;;;21.02;31.95;99457.66;5110518;27;8874;-79
2023/10/08 11:40:28;;;;;;;;;27.25;25.25;;;;;20.90;32.09;99461.09;5136022;27;8950;-79
2023/10/08 11:43:03;;;;;;;;;33.00;29.50;;;;;20.75;32.56;99461.16;5145520;27;8836;-79
2023/10/08 11:45:38;;;;;;;;;20.80;17.80;;;;;20.67;33.18;99458.97;5156540;27;8831;-76
2023/10/08 11:48:11;;;;;;;;;19.40;15.20;;;;;20.77;33.23;99451.22;5128440;27;8872;-82
2023/10/08 11:50:41;;;;;;;;;14.00;12.40;;;;;20.91;33.15;99468.16;5130089;27;8857;-79
2023/10/08 11:53:11;;;;;;;;;10.20;8.20;;;;;21.01;32.67;99477.31;5130220;27;8872;-75
2023/10/08 11:55:42;;;;;;;;;11.60;8.00;;;;;21.08;32.64;99446.56;5129376;27;8882;-77
2023/10/08 11:58:37;;;;;;;;;12.20;8.40;;;;;21.24;32.96;99449.94;5065429;28;8832;-80
2023/10/08 12:01:06;;;;;;;;;10.80;7.20;;;;;21.20;32.71;99466.25;5072535;28;8862;-79
2023/10/08 12:03:35;;;;;;;;;9.20;8.00;;;;;21.35;32.40;99441.19;5070556;28;8851;-80
2023/10/08 12:06:05;;;;;;;;;7.80;6.60;;;;;21.32;32.42;99449.41;5091680;28;8865;-79
2023/10/08 12:08:39;;;;;;;;;9.40;9.40;;;;;21.48;32.18;99451.88;5009219;28;8880;-77
2023/10/08 12:11:11;;;;;;;;;8.40;8.00;;;;;21.42;31.78;99446.97;5060569;28;8947;-76